Binghamton, NY (13903)

11:11 AM EST on December 10, 2016 (GMT -0500)
Ingraham Hill | | Change Station

Elev 1473 ft 42.06 °N, 75.94 °W | Updated 30 seconds ago

Overcast
Overcast
26.6 °F
Feels Like 27 °F
N
0.0
Wind Variable Wind from ENE

Today
High -- | Low -- °F
--% Chance of Precip.
Yesterday
High -- | Low -- °F
Precip. -- in
Pressure 30.31 in
Visibility 2.5 miles
Clouds Scattered Clouds 1600 ft
Mostly Cloudy 2500 ft
Overcast 3400 ft
Windchill 27 °F
Dew Point 18 °F
Humidity 70%
Rainfall 0.00 in
Snow Depth Not available.
7:21 AM 4:31 PM
Waxing Gibbous, 84% visible
METAR KN03 101555Z AUTO 22005KT 2 1/2SM -SN SCT016 BKN025 OVC034 M04/M06 A3031 RMK AO2
Pressure 30.31 in
Visibility 2.5 miles
Clouds Scattered Clouds 1600 ft
Mostly Cloudy 2500 ft
Overcast 3400 ft
Windchill 27 °F
Dew Point 18 °F
Humidity 70%
Rainfall 0.00 in
Snow Depth Not available.
7:21 AM 4:31 PM
Waxing Gibbous, 84% visible
METAR KN03 101555Z AUTO 22005KT 2 1/2SM -SN SCT016 BKN025 OVC034 M04/M06 A3031 RMK AO2

10-Day Weather Forecast

Almanac

Astronomy

Dec. 10, 2016 Rise Set
Actual Time
Civil Twilight
Nautical Twilight
Astronomical Twilight
Moon
Length of Visible Light
Length of Day
Tomorrow will be .
, % of the Moon is Illuminated

Today's Extremes

State Highs State Lows

Community

WunderPhotos

Upload Photos

1,956,569 photos uploaded!

WunderBlog® & News

Nearby

Air Quality

  Air Quality AQ Index Pollutant
Not available.

Snow Depth

Station Depth Elevation

Earthquake Activity

City Distance Mag. Time & Date
Minimum magnitude displayed is 2.5.

Coastal Water Temperatures

Place Temperature

Stations

Nearby Weather Stations

Station Location Temp. Windchill Dew Point Humidity Wind Precip. Elev Updated Type
                   

Watches & Warnings

There are currently no watches in effect.